sensor_id;sensor_type;location;lat;lon;timestamp;pressure;altitude;pressure_sealevel;temperature;humidity
62025;BME280;47978;49.118;12.146;2022-09-03T00:02:18;97329.09;;;10.98;79.47
62025;BME280;47978;49.118;12.146;2022-09-03T00:04:52;97337.31;;;10.90;80.11
62025;BME280;47978;49.118;12.146;2022-09-03T00:07:27;97328.03;;;10.72;80.94
62025;BME280;47978;49.118;12.146;2022-09-03T00:10:00;97328.84;;;10.72;80.94
62025;BME280;47978;49.118;12.146;2022-09-03T00:12:33;97325.53;;;10.62;81.14
62025;BME280;47978;49.118;12.146;2022-09-03T00:15:05;97332.28;;;10.55;81.31
62025;BME280;47978;49.118;12.146;2022-09-03T00:17:36;97324.59;;;10.52;81.55
62025;BME280;47978;49.118;12.146;2022-09-03T00:20:10;97320.03;;;10.48;81.94
62025;BME280;47978;49.118;12.146;2022-09-03T00:22:40;97323.50;;;10.40;82.35
62025;BME280;47978;49.118;12.146;2022-09-03T00:25:10;97324.41;;;10.49;82.32
62025;BME280;47978;49.118;12.146;2022-09-03T00:27:40;97322.47;;;10.49;81.91
62025;BME280;47978;49.118;12.146;2022-09-03T00:30:10;97317.13;;;10.53;81.54
62025;BME280;47978;49.118;12.146;2022-09-03T00:32:46;97321.72;;;10.57;81.63
62025;BME280;47978;49.118;12.146;2022-09-03T00:35:17;97321.47;;;10.45;81.99
62025;BME280;47978;49.118;12.146;2022-09-03T00:37:45;97314.69;;;10.38;81.80
62025;BME280;47978;49.118;12.146;2022-09-03T00:40:18;97322.06;;;10.42;82.06
62025;BME280;47978;49.118;12.146;2022-09-03T00:42:55;97327.69;;;10.23;82.92
62025;BME280;47978;49.118;12.146;2022-09-03T00:45:31;97320.53;;;10.08;83.50
62025;BME280;47978;49.118;12.146;2022-09-03T00:48:09;97319.72;;;10.08;83.94
62025;BME280;47978;49.118;12.146;2022-09-03T00:50:56;97322.47;;;10.08;84.04
62025;BME280;47978;49.118;12.146;2022-09-03T00:53:34;97326.97;;;10.18;82.64
62025;BME280;47978;49.118;12.146;2022-09-03T00:56:11;97327.59;;;10.14;82.81
62025;BME280;47978;49.118;12.146;2022-09-03T00:58:56;97339.78;;;10.13;82.71
62025;BME280;47978;49.118;12.146;2022-09-03T01:01:29;97336.50;;;10.11;83.04
62025;BME280;47978;49.118;12.146;2022-09-03T01:04:11;97336.16;;;10.13;82.79
62025;BME280;47978;49.118;12.146;2022-09-03T01:06:48;97337.81;;;10.00;83.61
62025;BME280;47978;49.118;12.146;2022-09-03T01:09:27;97340.28;;;10.02;83.47
62025;BME280;47978;49.118;12.146;2022-09-03T01:12:00;97343.34;;;10.00;83.90
62025;BME280;47978;49.118;12.146;2022-09-03T01:14:37;97345.19;;;10.05;83.56
62025;BME280;47978;49.118;12.146;2022-09-03T01:17:13;97335.44;;;10.07;83.42
62025;BME280;47978;49.118;12.146;2022-09-03T01:19:59;97347.63;;;10.06;83.14
62025;BME280;47978;49.118;12.146;2022-09-03T01:23:08;97343.25;;;10.05;83.08
62025;BME280;47978;49.118;12.146;2022-09-03T01:25:51;97346.22;;;10.09;83.00
62025;BME280;47978;49.118;12.146;2022-09-03T01:28:29;97347.22;;;9.85;83.88
62025;BME280;47978;49.118;12.146;2022-09-03T01:31:04;97343.53;;;9.90;84.00
62025;BME280;47978;49.118;12.146;2022-09-03T01:33:38;97335.56;;;9.88;83.98
62025;BME280;47978;49.118;12.146;2022-09-03T01:36:10;97342.09;;;9.93;83.75
62025;BME280;47978;49.118;12.146;2022-09-03T01:38:43;97331.16;;;9.87;83.83
62025;BME280;47978;49.118;12.146;2022-09-03T01:41:19;97324.59;;;9.83;84.10
62025;BME280;47978;49.118;12.146;2022-09-03T01:43:59;97330.31;;;9.73;84.49
62025;BME280;47978;49.118;12.146;2022-09-03T01:46:33;97327.78;;;9.77;84.48
62025;BME280;47978;49.118;12.146;2022-09-03T01:49:06;97334.53;;;9.71;84.96
62025;BME280;47978;49.118;12.146;2022-09-03T01:51:36;97328.19;;;9.84;84.13
62025;BME280;47978;49.118;12.146;2022-09-03T01:54:25;97331.66;;;9.76;84.16
62025;BME280;47978;49.118;12.146;2022-09-03T01:57:22;97326.34;;;9.79;84.12
62025;BME280;47978;49.118;12.146;2022-09-03T02:00:06;97338.72;;;9.82;83.94
62025;BME280;47978;49.118;12.146;2022-09-03T02:02:33;97343.13;;;9.83;83.86
62025;BME280;47978;49.118;12.146;2022-09-03T02:05:02;97342.69;;;9.76;84.21
62025;BME280;47978;49.118;12.146;2022-09-03T02:07:31;97342.09;;;9.65;84.15
62025;BME280;47978;49.118;12.146;2022-09-03T02:09:58;97338.78;;;9.63;84.42
62025;BME280;47978;49.118;12.146;2022-09-03T02:12:27;97334.25;;;9.53;84.89
62025;BME280;47978;49.118;12.146;2022-09-03T02:14:55;97327.56;;;9.59;84.54
62025;BME280;47978;49.118;12.146;2022-09-03T02:17:24;97328.75;;;9.53;84.61
62025;BME280;47978;49.118;12.146;2022-09-03T02:19:51;97332.91;;;9.37;85.07
62025;BME280;47978;49.118;12.146;2022-09-03T02:22:18;97323.22;;;9.39;85.41
62025;BME280;47978;49.118;12.146;2022-09-03T02:24:44;97325.44;;;9.37;85.37
62025;BME280;47978;49.118;12.146;2022-09-03T02:27:11;97325.66;;;9.41;85.32
62025;BME280;47978;49.118;12.146;2022-09-03T02:29:38;97323.09;;;9.44;85.07
62025;BME280;47978;49.118;12.146;2022-09-03T02:32:04;97322.81;;;9.46;84.95
62025;BME280;47978;49.118;12.146;2022-09-03T02:34:32;97323.00;;;9.50;84.65
62025;BME280;47978;49.118;12.146;2022-09-03T02:36:59;97328.53;;;9.50;84.43
62025;BME280;47978;49.118;12.146;2022-09-03T02:39:25;97331.22;;;9.55;84.62
62025;BME280;47978;49.118;12.146;2022-09-03T02:41:54;97326.72;;;9.59;84.19
62025;BME280;47978;49.118;12.146;2022-09-03T02:44:25;97328.38;;;9.60;84.11
62025;BME280;47978;49.118;12.146;2022-09-03T02:46:57;97330.28;;;9.45;84.19
62025;BME280;47978;49.118;12.146;2022-09-03T02:49:24;97328.84;;;9.48;84.52
62025;BME280;47978;49.118;12.146;2022-09-03T02:51:57;97318.06;;;9.33;85.20
62025;BME280;47978;49.118;12.146;2022-09-03T02:54:23;97328.50;;;9.36;85.15
62025;BME280;47978;49.118;12.146;2022-09-03T02:56:50;97325.66;;;9.41;84.73
62025;BME280;47978;49.118;12.146;2022-09-03T02:59:17;97321.75;;;9.42;84.92
62025;BME280;47978;49.118;12.146;2022-09-03T03:01:44;97321.13;;;9.31;85.05
62025;BME280;47978;49.118;12.146;2022-09-03T03:04:12;97326.34;;;9.33;85.24
62025;BME280;47978;49.118;12.146;2022-09-03T03:06:38;97319.13;;;9.37;85.13
62025;BME280;47978;49.118;12.146;2022-09-03T03:09:06;97330.66;;;9.39;84.86
62025;BME280;47978;49.118;12.146;2022-09-03T03:11:33;97327.16;;;9.33;85.37
62025;BME280;47978;49.118;12.146;2022-09-03T03:14:00;97322.22;;;9.16;86.23
62025;BME280;47978;49.118;12.146;2022-09-03T03:16:26;97320.44;;;9.07;86.85
62025;BME280;47978;49.118;12.146;2022-09-03T03:18:54;97321.84;;;9.04;87.36
62025;BME280;47978;49.118;12.146;2022-09-03T03:21:21;97324.66;;;9.18;86.92
62025;BME280;47978;49.118;12.146;2022-09-03T03:23:48;97325.31;;;9.29;86.83
62025;BME280;47978;49.118;12.146;2022-09-03T03:26:18;97324.50;;;9.28;86.55
62025;BME280;47978;49.118;12.146;2022-09-03T03:28:45;97336.28;;;9.34;86.55
62025;BME280;47978;49.118;12.146;2022-09-03T03:31:14;97335.88;;;9.40;86.63
62025;BME280;47978;49.118;12.146;2022-09-03T03:33:41;97342.53;;;9.53;86.16
62025;BME280;47978;49.118;12.146;2022-09-03T03:36:11;97329.47;;;9.59;86.11
62025;BME280;47978;49.118;12.146;2022-09-03T03:38:38;97328.66;;;9.58;86.40
62025;BME280;47978;49.118;12.146;2022-09-03T03:41:06;97330.59;;;9.58;86.43
62025;BME280;47978;49.118;12.146;2022-09-03T03:43:34;97334.69;;;9.60;86.48
62025;BME280;47978;49.118;12.146;2022-09-03T03:46:01;97339.19;;;9.70;86.18
62025;BME280;47978;49.118;12.146;2022-09-03T03:48:28;97329.47;;;9.59;86.57
62025;BME280;47978;49.118;12.146;2022-09-03T03:50:58;97328.38;;;9.60;86.99
62025;BME280;47978;49.118;12.146;2022-09-03T03:53:25;97327.97;;;9.66;86.79
62025;BME280;47978;49.118;12.146;2022-09-03T03:55:55;97331.44;;;9.72;86.93
62025;BME280;47978;49.118;12.146;2022-09-03T03:58:22;97333.81;;;9.65;87.46
62025;BME280;47978;49.118;12.146;2022-09-03T04:00:51;97329.69;;;9.62;87.86
62025;BME280;47978;49.118;12.146;2022-09-03T04:03:18;97329.81;;;9.71;87.54
62025;BME280;47978;49.118;12.146;2022-09-03T04:05:54;97333.91;;;9.74;87.25
62025;BME280;47978;49.118;12.146;2022-09-03T04:08:20;97332.78;;;9.75;87.24
62025;BME280;47978;49.118;12.146;2022-09-03T04:10:48;97329.50;;;9.73;87.46
62025;BME280;47978;49.118;12.146;2022-09-03T04:13:14;97330.63;;;9.72;87.50
62025;BME280;47978;49.118;12.146;2022-09-03T04:15:41;97331.75;;;9.71;87.61
62025;BME280;47978;49.118;12.146;2022-09-03T04:18:09;97336.16;;;9.72;87.40
62025;BME280;47978;49.118;12.146;2022-09-03T04:20:35;97328.59;;;9.77;87.14
62025;BME280;47978;49.118;12.146;2022-09-03T04:23:03;97327.78;;;9.77;87.02
62025;BME280;47978;49.118;12.146;2022-09-03T04:25:30;97331.03;;;9.79;86.95
62025;BME280;47978;49.118;12.146;2022-09-03T04:27:57;97331.75;;;9.71;87.24
62025;BME280;47978;49.118;12.146;2022-09-03T04:30:23;97332.78;;;9.75;87.52
62025;BME280;47978;49.118;12.146;2022-09-03T04:32:50;97330.13;;;9.83;86.93
62025;BME280;47978;49.118;12.146;2022-09-03T04:35:19;97327.78;;;9.90;86.74
62025;BME280;47978;49.118;12.146;2022-09-03T04:37:46;97331.38;;;9.91;86.81
62025;BME280;47978;49.118;12.146;2022-09-03T04:40:13;97327.47;;;9.92;86.73
62025;BME280;47978;49.118;12.146;2022-09-03T04:42:40;97335.75;;;9.92;86.63
62025;BME280;47978;49.118;12.146;2022-09-03T04:45:08;97347.22;;;9.85;87.16
62025;BME280;47978;49.118;12.146;2022-09-03T04:47:35;97335.34;;;9.85;87.63
62025;BME280;47978;49.118;12.146;2022-09-03T04:50:01;97346.91;;;9.87;87.60
62025;BME280;47978;49.118;12.146;2022-09-03T04:52:29;97341.00;;;9.94;87.19
62025;BME280;47978;49.118;12.146;2022-09-03T04:54:56;97345.91;;;9.97;87.24
62025;BME280;47978;49.118;12.146;2022-09-03T04:57:23;97346.81;;;9.92;87.12
62025;BME280;47978;49.118;12.146;2022-09-03T04:59:49;97349.38;;;10.02;86.59
62025;BME280;47978;49.118;12.146;2022-09-03T05:02:16;97356.44;;;10.08;86.66
62025;BME280;47978;49.118;12.146;2022-09-03T05:04:43;97348.06;;;10.13;86.71
62025;BME280;47978;49.118;12.146;2022-09-03T05:07:09;97343.53;;;10.18;86.47
62025;BME280;47978;49.118;12.146;2022-09-03T05:09:37;97344.34;;;10.18;86.53
62025;BME280;47978;49.118;12.146;2022-09-03T05:12:05;97355.94;;;10.20;86.39
62025;BME280;47978;49.118;12.146;2022-09-03T05:14:31;97358.06;;;10.23;86.51
62025;BME280;47978;49.118;12.146;2022-09-03T05:16:58;97360.56;;;10.25;86.35
62025;BME280;47978;49.118;12.146;2022-09-03T05:19:25;97357.06;;;10.19;86.78
62025;BME280;47978;49.118;12.146;2022-09-03T05:21:51;97358.19;;;10.18;87.38
62025;BME280;47978;49.118;12.146;2022-09-03T05:24:18;97359.72;;;10.24;86.96
62025;BME280;47978;49.118;12.146;2022-09-03T05:26:46;97354.19;;;10.24;86.69
62025;BME280;47978;49.118;12.146;2022-09-03T05:29:12;97353.00;;;10.30;86.32
62025;BME280;47978;49.118;12.146;2022-09-03T05:31:39;97356.22;;;10.19;87.07
62025;BME280;47978;49.118;12.146;2022-09-03T05:34:06;97355.16;;;10.33;86.97
62025;BME280;47978;49.118;12.146;2022-09-03T05:36:35;97356.69;;;10.40;86.45
62025;BME280;47978;49.118;12.146;2022-09-03T05:39:03;97340.69;;;10.50;86.73
62025;BME280;47978;49.118;12.146;2022-09-03T05:41:30;97339.44;;;10.70;85.93
62025;BME280;47978;49.118;12.146;2022-09-03T05:43:58;97348.66;;;11.02;85.17
62025;BME280;47978;49.118;12.146;2022-09-03T05:46:27;97354.84;;;11.21;84.31
62025;BME280;47978;49.118;12.146;2022-09-03T05:48:54;97351.81;;;11.32;84.21
62025;BME280;47978;49.118;12.146;2022-09-03T05:51:20;97349.16;;;11.26;83.77
62025;BME280;47978;49.118;12.146;2022-09-03T05:53:48;97340.28;;;11.38;83.87
62025;BME280;47978;49.118;12.146;2022-09-03T05:56:16;97351.81;;;11.54;83.41
62025;BME280;47978;49.118;12.146;2022-09-03T05:58:44;97341.56;;;11.55;83.80
62025;BME280;47978;49.118;12.146;2022-09-03T06:01:15;97346.19;;;11.68;83.63
62025;BME280;47978;49.118;12.146;2022-09-03T06:03:44;97353.00;;;11.62;84.88
62025;BME280;47978;49.118;12.146;2022-09-03T06:06:12;97346.03;;;11.64;85.19
62025;BME280;47978;49.118;12.146;2022-09-03T06:08:39;97348.63;;;11.69;84.62
62025;BME280;47978;49.118;12.146;2022-09-03T06:11:06;97356.69;;;12.02;84.53
62025;BME280;47978;49.118;12.146;2022-09-03T06:13:35;97347.50;;;12.33;82.86
62025;BME280;47978;49.118;12.146;2022-09-03T06:16:03;97355.03;;;12.32;82.42
62025;BME280;47978;49.118;12.146;2022-09-03T06:18:32;97346.56;;;12.46;82.65
62025;BME280;47978;49.118;12.146;2022-09-03T06:21:00;97353.91;;;12.42;81.88
62025;BME280;47978;49.118;12.146;2022-09-03T06:23:28;97350.53;;;12.63;79.93
62025;BME280;47978;49.118;12.146;2022-09-03T06:26:02;97351.22;;;12.94;79.69
62025;BME280;47978;49.118;12.146;2022-09-03T06:28:31;97349.44;;;13.24;78.56
62025;BME280;47978;49.118;12.146;2022-09-03T06:30:58;97344.06;;;13.45;78.04
62025;BME280;47978;49.118;12.146;2022-09-03T06:33:25;97351.75;;;13.31;78.93
62025;BME280;47978;49.118;12.146;2022-09-03T06:35:54;97351.59;;;13.27;76.79
62025;BME280;47978;49.118;12.146;2022-09-03T06:38:20;97349.63;;;13.28;76.75
62025;BME280;47978;49.118;12.146;2022-09-03T06:40:51;97357.00;;;13.33;76.93
62025;BME280;47978;49.118;12.146;2022-09-03T06:43:17;97357.25;;;13.66;74.76
62025;BME280;47978;49.118;12.146;2022-09-03T06:45:52;97367.59;;;14.21;74.02
62025;BME280;47978;49.118;12.146;2022-09-03T06:48:19;97359.09;;;14.85;71.96
62025;BME280;47978;49.118;12.146;2022-09-03T06:50:54;97367.50;;;15.06;70.98
62025;BME280;47978;49.118;12.146;2022-09-03T06:53:22;97367.47;;;15.69;69.29
62025;BME280;47978;49.118;12.146;2022-09-03T06:55:52;97370.03;;;16.08;67.18
62025;BME280;47978;49.118;12.146;2022-09-03T06:58:19;97370.09;;;16.45;66.62
62025;BME280;47978;49.118;12.146;2022-09-03T07:00:45;97373.47;;;16.38;65.95
62025;BME280;47978;49.118;12.146;2022-09-03T07:03:12;97373.28;;;16.80;65.32
62025;BME280;47978;49.118;12.146;2022-09-03T07:05:39;97369.88;;;16.74;63.83
62025;BME280;47978;49.118;12.146;2022-09-03T07:08:07;97374.38;;;16.30;64.59
62025;BME280;47978;49.118;12.146;2022-09-03T07:10:35;97367.44;;;16.48;63.15
62025;BME280;47978;49.118;12.146;2022-09-03T07:13:02;97374.25;;;16.14;63.33
62025;BME280;47978;49.118;12.146;2022-09-03T07:15:29;97381.78;;;16.13;62.82
62025;BME280;47978;49.118;12.146;2022-09-03T07:17:56;97370.31;;;16.27;63.04
62025;BME280;47978;49.118;12.146;2022-09-03T07:20:23;97368.91;;;16.33;62.76
62025;BME280;47978;49.118;12.146;2022-09-03T07:22:53;97364.38;;;16.53;62.74
62025;BME280;47978;49.118;12.146;2022-09-03T07:25:22;97363.59;;;16.65;62.26
62025;BME280;47978;49.118;12.146;2022-09-03T07:27:48;97354.41;;;16.40;63.14
62025;BME280;47978;49.118;12.146;2022-09-03T07:30:15;97354.34;;;16.15;62.54
62025;BME280;47978;49.118;12.146;2022-09-03T07:32:42;97358.19;;;16.11;62.81
62025;BME280;47978;49.118;12.146;2022-09-03T07:35:08;97354.47;;;16.07;63.17
62025;BME280;47978;49.118;12.146;2022-09-03T07:37:35;97362.34;;;16.05;62.85
62025;BME280;47978;49.118;12.146;2022-09-03T07:40:02;97374.47;;;16.21;62.88
62025;BME280;47978;49.118;12.146;2022-09-03T07:42:30;97371.03;;;16.61;62.38
62025;BME280;47978;49.118;12.146;2022-09-03T07:44:57;97369.63;;;16.55;61.80
62025;BME280;47978;49.118;12.146;2022-09-03T07:47:23;97373.72;;;16.82;62.46
62025;BME280;47978;49.118;12.146;2022-09-03T07:49:52;97377.66;;;16.93;61.46
62025;BME280;47978;49.118;12.146;2022-09-03T07:52:19;97377.44;;;17.11;61.47
62025;BME280;47978;49.118;12.146;2022-09-03T07:54:45;97376.19;;;16.83;61.29
62025;BME280;47978;49.118;12.146;2022-09-03T07:57:12;97376.88;;;16.80;62.19
62025;BME280;47978;49.118;12.146;2022-09-03T07:59:40;97378.00;;;16.67;61.34
62025;BME280;47978;49.118;12.146;2022-09-03T08:02:06;97389.34;;;16.83;60.30
62025;BME280;47978;49.118;12.146;2022-09-03T08:04:33;97386.41;;;17.16;60.28
62025;BME280;47978;49.118;12.146;2022-09-03T08:07:00;97384.31;;;16.89;60.55
62025;BME280;47978;49.118;12.146;2022-09-03T08:09:26;97381.25;;;17.30;60.49
62025;BME280;47978;49.118;12.146;2022-09-03T08:11:53;97386.84;;;17.18;59.00
62025;BME280;47978;49.118;12.146;2022-09-03T08:14:19;97384.28;;;17.25;60.29
62025;BME280;47978;49.118;12.146;2022-09-03T08:16:47;97390.19;;;17.24;58.95
62025;BME280;47978;49.118;12.146;2022-09-03T08:19:15;97389.75;;;17.09;60.45
62025;BME280;47978;49.118;12.146;2022-09-03T08:21:41;97389.28;;;17.07;60.44
62025;BME280;47978;49.118;12.146;2022-09-03T08:24:09;97384.19;;;17.09;59.79
62025;BME280;47978;49.118;12.146;2022-09-03T08:26:38;97381.47;;;17.13;59.33
62025;BME280;47978;49.118;12.146;2022-09-03T08:29:05;97379.78;;;17.49;58.54
62025;BME280;47978;49.118;12.146;2022-09-03T08:31:33;97378.16;;;17.88;58.57
62025;BME280;47978;49.118;12.146;2022-09-03T08:34:05;97386.34;;;18.41;56.00
62025;BME280;47978;49.118;12.146;2022-09-03T08:36:36;97383.13;;;18.39;54.51
62025;BME280;47978;49.118;12.146;2022-09-03T08:39:05;97378.56;;;18.34;57.54
62025;BME280;47978;49.118;12.146;2022-09-03T08:41:40;97373.53;;;18.72;53.32
62025;BME280;47978;49.118;12.146;2022-09-03T08:44:21;97366.44;;;19.09;53.75
62025;BME280;47978;49.118;12.146;2022-09-03T08:46:51;97367.44;;;19.37;53.73
62025;BME280;47978;49.118;12.146;2022-09-03T08:49:24;97369.00;;;19.53;52.51
62025;BME280;47978;49.118;12.146;2022-09-03T08:51:54;97367.25;;;19.45;51.78
62025;BME280;47978;49.118;12.146;2022-09-03T08:54:24;97369.53;;;19.59;52.77
62025;BME280;47978;49.118;12.146;2022-09-03T08:56:52;97365.34;;;19.14;53.88
62025;BME280;47978;49.118;12.146;2022-09-03T08:59:20;97367.00;;;18.99;53.36
62025;BME280;47978;49.118;12.146;2022-09-03T09:01:54;97365.75;;;18.97;53.56
62025;BME280;47978;49.118;12.146;2022-09-03T09:04:38;97367.06;;;19.19;53.61
62025;BME280;47978;49.118;12.146;2022-09-03T09:07:11;97368.25;;;19.37;54.42
62025;BME280;47978;49.118;12.146;2022-09-03T09:09:45;97362.41;;;19.26;53.17
62025;BME280;47978;49.118;12.146;2022-09-03T09:12:21;97362.75;;;19.05;53.81
62025;BME280;47978;49.118;12.146;2022-09-03T09:15:04;97361.13;;;19.04;54.17
62025;BME280;47978;49.118;12.146;2022-09-03T09:17:44;97359.84;;;19.37;53.77
62025;BME280;47978;49.118;12.146;2022-09-03T09:20:20;97360.00;;;19.44;54.12
62025;BME280;47978;49.118;12.146;2022-09-03T09:22:51;97357.47;;;19.20;54.04
62025;BME280;47978;49.118;12.146;2022-09-03T09:25:20;97352.94;;;19.15;54.49
62025;BME280;47978;49.118;12.146;2022-09-03T09:27:50;97353.38;;;19.33;55.23
62025;BME280;47978;49.118;12.146;2022-09-03T09:30:18;97344.66;;;19.58;54.38
62025;BME280;47978;49.118;12.146;2022-09-03T09:32:45;97352.34;;;19.80;53.06
62025;BME280;47978;49.118;12.146;2022-09-03T09:35:12;97340.59;;;19.94;53.57
62025;BME280;47978;49.118;12.146;2022-09-03T09:37:48;97341.63;;;20.28;54.04
62025;BME280;47978;49.118;12.146;2022-09-03T09:40:27;97332.91;;;20.10;51.76
62025;BME280;47978;49.118;12.146;2022-09-03T09:43:03;97326.63;;;20.20;53.18
62025;BME280;47978;49.118;12.146;2022-09-03T09:45:29;97329.94;;;20.26;52.88
62025;BME280;47978;49.118;12.146;2022-09-03T09:47:56;97340.38;;;20.49;52.24
62025;BME280;47978;49.118;12.146;2022-09-03T09:50:23;97332.91;;;20.56;51.70
62025;BME280;47978;49.118;12.146;2022-09-03T09:53:00;97335.28;;;20.54;52.17
62025;BME280;47978;49.118;12.146;2022-09-03T09:55:27;97330.69;;;20.46;51.77
62025;BME280;47978;49.118;12.146;2022-09-03T09:58:04;97325.34;;;20.60;50.29
62025;BME280;47978;49.118;12.146;2022-09-03T10:00:30;97325.13;;;20.69;49.62
62025;BME280;47978;49.118;12.146;2022-09-03T10:02:57;97326.63;;;20.89;50.46
62025;BME280;47978;49.118;12.146;2022-09-03T10:05:25;97320.53;;;20.84;50.21
62025;BME280;47978;49.118;12.146;2022-09-03T10:07:56;97307.47;;;20.99;50.19
62025;BME280;47978;49.118;12.146;2022-09-03T10:10:25;97309.00;;;20.93;50.66
62025;BME280;47978;49.118;12.146;2022-09-03T10:12:55;97310.72;;;21.01;51.71
62025;BME280;47978;49.118;12.146;2022-09-03T10:15:27;97308.81;;;21.08;50.78
62025;BME280;47978;49.118;12.146;2022-09-03T10:18:02;97308.81;;;21.08;49.22
62025;BME280;47978;49.118;12.146;2022-09-03T10:20:36;97304.34;;;21.04;49.52
62025;BME280;47978;49.118;12.146;2022-09-03T10:23:10;97308.81;;;21.08;49.59
62025;BME280;47978;49.118;12.146;2022-09-03T10:25:47;97312.78;;;21.04;51.29
62025;BME280;47978;49.118;12.146;2022-09-03T10:28:17;97306.91;;;21.16;51.94
62025;BME280;47978;49.118;12.146;2022-09-03T10:30:55;97310.66;;;20.97;50.26
62025;BME280;47978;49.118;12.146;2022-09-03T10:33:29;97305.69;;;21.14;51.26
62025;BME280;47978;49.118;12.146;2022-09-03T10:36:06;97301.63;;;21.11;49.52
62025;BME280;47978;49.118;12.146;2022-09-03T10:38:37;97301.53;;;21.34;49.19
62025;BME280;47978;49.118;12.146;2022-09-03T10:41:16;97300.34;;;21.35;51.52
62025;BME280;47978;49.118;12.146;2022-09-03T10:44:10;97295.03;;;21.26;48.80
62025;BME280;47978;49.118;12.146;2022-09-03T10:46:49;97301.69;;;21.45;48.89
62025;BME280;47978;49.118;12.146;2022-09-03T10:49:32;97309.16;;;21.33;50.04
62025;BME280;47978;49.118;12.146;2022-09-03T10:52:08;97307.31;;;21.45;49.43
62025;BME280;47978;49.118;12.146;2022-09-03T10:54:48;97299.75;;;21.49;48.51
62025;BME280;47978;49.118;12.146;2022-09-03T10:57:30;97298.22;;;21.55;47.93
62025;BME280;47978;49.118;12.146;2022-09-03T11:00:05;97304.63;;;21.52;49.60
62025;BME280;47978;49.118;12.146;2022-09-03T11:05:55;97291.88;;;21.99;49.60
62025;BME280;47978;49.118;12.146;2022-09-03T11:08:27;97287.00;;;22.37;48.02
62025;BME280;47978;49.118;12.146;2022-09-03T11:11:01;97296.00;;;22.53;48.09
62025;BME280;47978;49.118;12.146;2022-09-03T11:13:37;97287.63;;;22.60;46.11
62025;BME280;47978;49.118;12.146;2022-09-03T11:16:10;97289.56;;;22.49;45.52
62025;BME280;47978;49.118;12.146;2022-09-03T11:18:43;97285.19;;;22.59;46.93
62025;BME280;47978;49.118;12.146;2022-09-03T11:21:13;97289.91;;;22.44;46.45
62025;BME280;47978;49.118;12.146;2022-09-03T11:23:43;97284.25;;;22.40;46.06
62025;BME280;47978;49.118;12.146;2022-09-03T11:26:13;97289.84;;;22.37;46.61
62025;BME280;47978;49.118;12.146;2022-09-03T11:28:49;97287.09;;;22.48;47.65
62025;BME280;47978;49.118;12.146;2022-09-03T11:31:24;97289.78;;;22.30;47.50
62025;BME280;47978;49.118;12.146;2022-09-03T11:33:59;97291.84;;;22.36;48.62
62025;BME280;47978;49.118;12.146;2022-09-03T11:36:29;97293.66;;;22.62;47.93
62025;BME280;47978;49.118;12.146;2022-09-03T11:38:56;97295.09;;;22.38;47.03
62025;BME280;47978;49.118;12.146;2022-09-03T11:41:25;97283.34;;;22.29;46.92
62025;BME280;47978;49.118;12.146;2022-09-03T11:43:53;97290.22;;;22.32;46.70
62025;BME280;47978;49.118;12.146;2022-09-03T11:46:28;97281.50;;;22.51;45.50
62025;BME280;47978;49.118;12.146;2022-09-03T11:48:56;97285.16;;;22.55;45.68
62025;BME280;47978;49.118;12.146;2022-09-03T11:51:35;97287.41;;;22.87;47.29
62025;BME280;47978;49.118;12.146;2022-09-03T11:54:04;97292.25;;;22.86;45.56
62025;BME280;47978;49.118;12.146;2022-09-03T11:56:33;97293.59;;;23.00;46.95
62025;BME280;47978;49.118;12.146;2022-09-03T11:59:16;97284.84;;;22.67;47.46
62025;BME280;47978;49.118;12.146;2022-09-03T12:01:48;97294.44;;;22.59;47.83
62025;BME280;47978;49.118;12.146;2022-09-03T12:04:18;97293.50;;;22.41;48.76
62025;BME280;47978;49.118;12.146;2022-09-03T12:07:18;97287.13;;;22.51;49.49
62025;BME280;47978;49.118;12.146;2022-09-03T12:13:02;97285.44;;;22.39;48.72
62025;BME280;47978;49.118;12.146;2022-09-03T12:15:48;97277.16;;;22.16;50.46
62025;BME280;47978;49.118;12.146;2022-09-03T12:18:22;97289.53;;;22.08;50.51
62025;BME280;47978;49.118;12.146;2022-09-03T12:21:01;97280.44;;;22.22;50.79
62025;BME280;47978;49.118;12.146;2022-09-03T12:23:30;97283.06;;;22.45;49.80
62025;BME280;47978;49.118;12.146;2022-09-03T12:26:00;97285.47;;;22.43;49.30
62025;BME280;47978;49.118;12.146;2022-09-03T12:28:29;97276.94;;;22.32;50.88
62025;BME280;47978;49.118;12.146;2022-09-03T12:31:06;97277.94;;;22.54;49.79
62025;BME280;47978;49.118;12.146;2022-09-03T12:33:39;97268.16;;;22.44;48.50
62025;BME280;47978;49.118;12.146;2022-09-03T12:36:08;97269.41;;;22.47;48.76
62025;BME280;47978;49.118;12.146;2022-09-03T12:38:35;97269.06;;;22.56;48.49
62025;BME280;47978;49.118;12.146;2022-09-03T12:41:23;97270.88;;;22.34;48.56
62025;BME280;47978;49.118;12.146;2022-09-03T12:43:54;97267.31;;;21.99;50.54
62025;BME280;47978;49.118;12.146;2022-09-03T12:46:24;97264.09;;;21.97;50.11
62025;BME280;47978;49.118;12.146;2022-09-03T12:49:01;97265.28;;;21.96;51.61
62025;BME280;47978;49.118;12.146;2022-09-03T12:51:48;97256.94;;;22.07;50.63
62025;BME280;47978;49.118;12.146;2022-09-03T12:54:20;97247.88;;;22.25;50.45
62025;BME280;47978;49.118;12.146;2022-09-03T12:56:52;97241.91;;;22.33;52.47
62025;BME280;47978;49.118;12.146;2022-09-03T12:59:20;97233.56;;;22.48;50.30
62025;BME280;47978;49.118;12.146;2022-09-03T13:01:52;97240.06;;;22.55;50.48
62025;BME280;47978;49.118;12.146;2022-09-03T13:04:21;97246.41;;;22.41;47.99
62025;BME280;47978;49.118;12.146;2022-09-03T13:06:52;97248.13;;;22.09;49.30
62025;BME280;47978;49.118;12.146;2022-09-03T13:09:23;97256.94;;;22.04;50.69
62025;BME280;47978;49.118;12.146;2022-09-03T13:11:50;97250.16;;;21.71;52.55
62025;BME280;47978;49.118;12.146;2022-09-03T13:14:17;97240.16;;;21.77;51.75
62025;BME280;47978;49.118;12.146;2022-09-03T13:17:01;97239.19;;;21.62;53.76
62025;BME280;47978;49.118;12.146;2022-09-03T13:19:39;97238.53;;;21.39;52.00